EKST weather

Sydfyn (Tasinge) Airport
Tasinge, South Denmark, Denmark

Public forecast

Using degrees Celsius for public forecast. Weather courtesy of forecast.io.

METAR (pilot weather report)

Closest report is S√łnderborg Airport, 26.8 nm (49.6 km) W. Retrieved 2019/07/22 08:20 UTC (29 minutes ago):

EKSB 220820Z 22005KT 170V260 9999 -RA BKN030 17/14 Q1021

TAF (pilot weather forecast)

Forecast is more than 12 hours old.

Closest forecast is S√łnderborg Airport, 26.8 nm (49.6 km) W. Retrieved 2016/01/27 09:03 UTC (3 years ago):

TAF TAF EKSB 270856Z 2709/2721 23022KT 5000 -RA BR BKN008 TEMPO 2709/2721 24025G40KT 2000 RADZ BKN004